createdAt,value
2019-04-21T00:03:53.902Z,5.30
2019-04-21T00:08:27.113Z,5.30
2019-04-21T00:12:35.626Z,5.30
2019-04-21T00:16:12.044Z,5.20
2019-04-21T00:20:28.364Z,5.20
2019-04-21T00:24:41.257Z,5.10
2019-04-21T00:28:59.425Z,5.10
2019-04-21T00:32:54.489Z,5.10
2019-04-21T00:37:02.517Z,5.10
2019-04-21T00:41:23.601Z,5.10
2019-04-21T00:45:20.642Z,5.00
2019-04-21T00:49:25.750Z,5.00
2019-04-21T00:53:51.636Z,4.90
2019-04-21T00:57:52.115Z,4.90
2019-04-21T01:01:56.184Z,4.90
2019-04-21T01:06:03.280Z,4.80
2019-04-21T01:10:01.396Z,4.80
2019-04-21T01:14:21.950Z,4.70
2019-04-21T01:18:20.553Z,4.70
2019-04-21T01:22:07.141Z,4.60
2019-04-21T01:26:25.103Z,4.60
2019-04-21T01:30:42.924Z,4.50
2019-04-21T01:34:45.579Z,4.50
2019-04-21T01:38:55.116Z,4.40
2019-04-21T01:43:03.084Z,4.40
2019-04-21T01:47:04.861Z,4.30
2019-04-21T01:51:15.655Z,4.30
2019-04-21T01:55:45.594Z,4.30
2019-04-21T01:59:40.272Z,4.20
2019-04-21T02:04:09.427Z,4.20
2019-04-21T02:07:54.885Z,4.10
2019-04-21T02:12:10.109Z,4.00
2019-04-21T02:16:19.021Z,4.00
2019-04-21T02:20:15.201Z,4.00
2019-04-21T02:24:37.355Z,3.90
2019-04-21T02:28:42.783Z,3.90
2019-04-21T02:33:03.839Z,3.90
2019-04-21T02:37:19.473Z,3.80
2019-04-21T02:40:57.512Z,3.70
2019-04-21T02:49:23.026Z,3.80
2019-04-21T02:53:27.039Z,3.90
2019-04-21T03:06:27.026Z,3.80
2019-04-21T03:14:50.334Z,3.80
2019-04-21T03:27:09.807Z,3.70
2019-04-21T03:31:19.609Z,3.60
2019-04-21T03:39:07.801Z,3.50
2019-04-21T03:43:21.348Z,3.50
2019-04-21T03:59:45.854Z,3.20
2019-04-21T04:08:52.517Z,3.20
2019-04-21T04:12:34.525Z,3.10
2019-04-21T04:16:49.803Z,3.20
2019-04-21T04:20:51.313Z,3.10
2019-04-21T04:33:12.872Z,3.20
2019-04-21T04:37:30.714Z,3.20
2019-04-21T04:41:33.443Z,3.20
2019-04-21T04:45:46.660Z,3.30
2019-04-21T04:49:48.062Z,3.40
2019-04-21T04:53:46.949Z,3.50
2019-04-21T05:10:42.589Z,3.80
2019-04-21T05:14:41.098Z,4.00
2019-04-21T05:18:56.513Z,4.10
2019-04-21T05:22:47.305Z,4.20
2019-04-21T05:26:49.400Z,4.40
2019-04-21T05:31:23.662Z,4.50
2019-04-21T05:35:43.731Z,4.70
2019-04-21T05:39:50.843Z,4.80
2019-04-21T05:43:57.508Z,4.90
2019-04-21T05:48:24.174Z,5.10
2019-04-21T05:52:19.651Z,5.20
2019-04-21T05:56:32.401Z,5.40
2019-04-21T06:00:59.179Z,5.60
2019-04-21T06:05:18.513Z,5.80
2019-04-21T06:08:53.636Z,6.10
2019-04-21T06:13:07.107Z,6.40
2019-04-21T06:17:11.016Z,6.70
2019-04-21T06:21:19.045Z,7.00
2019-04-21T06:29:30.170Z,7.60
2019-04-21T06:33:41.716Z,7.90
2019-04-21T06:41:45.276Z,8.50
2019-04-21T06:46:05.775Z,8.80
2019-04-21T06:50:02.098Z,9.20
2019-04-21T06:54:14.465Z,9.70
2019-04-21T06:58:22.799Z,10.10
2019-04-21T07:02:39.709Z,10.50
2019-04-21T07:06:40.368Z,11.00
2019-04-21T07:10:37.273Z,11.50
2019-04-21T07:14:42.071Z,11.80
2019-04-21T07:19:01.158Z,12.10
2019-04-21T07:23:03.564Z,12.60
2019-04-21T07:27:25.552Z,13.00
2019-04-21T07:31:22.774Z,13.30
2019-04-21T07:35:32.184Z,13.60
2019-04-21T07:39:22.411Z,13.80
2019-04-21T07:43:28.624Z,14.10
2019-04-21T07:47:53.134Z,14.40
2019-04-21T07:52:24.817Z,14.70
2019-04-21T07:56:16.187Z,15.20
2019-04-21T08:00:45.022Z,15.70
2019-04-21T08:04:55.973Z,16.00
2019-04-21T08:08:48.931Z,16.30
2019-04-21T08:12:54.272Z,16.60
2019-04-21T08:17:03.140Z,16.70
2019-04-21T08:21:06.246Z,17.30
2019-04-21T08:25:15.173Z,17.90
2019-04-21T08:29:38.052Z,19.50
2019-04-21T08:37:39.887Z,22.60
2019-04-21T08:41:43.777Z,23.80
2019-04-21T08:45:54.103Z,24.70
2019-04-21T08:50:02.102Z,25.00
2019-04-21T08:54:16.555Z,25.90
2019-04-21T08:58:47.906Z,26.10
2019-04-21T09:03:04.544Z,27.10
2019-04-21T09:11:06.915Z,27.90
2019-04-21T09:15:14.393Z,28.00
2019-04-21T09:19:35.366Z,28.60
2019-04-21T09:23:35.119Z,27.80
2019-04-21T09:27:36.768Z,27.40
2019-04-21T09:31:31.878Z,27.60
2019-04-21T09:35:33.967Z,27.20
2019-04-21T09:39:43.933Z,27.00
2019-04-21T09:43:52.120Z,27.40
2019-04-21T09:48:02.746Z,27.60
2019-04-21T09:52:02.385Z,27.50
2019-04-21T09:56:11.787Z,27.60
2019-04-21T10:00:22.418Z,28.20
2019-04-21T10:04:23.089Z,27.70
2019-04-21T10:08:29.434Z,28.30
2019-04-21T10:12:35.086Z,27.90
2019-04-21T10:17:05.038Z,29.70
2019-04-21T10:21:13.153Z,28.70
2019-04-21T10:25:18.718Z,28.70
2019-04-21T10:29:29.099Z,29.40
2019-04-21T10:33:32.431Z,29.90
2019-04-21T10:37:49.859Z,29.10
2019-04-21T10:41:47.634Z,28.70
2019-04-21T10:46:16.989Z,29.50
2019-04-21T10:50:38.911Z,29.70
2019-04-21T10:55:17.194Z,30.40
2019-04-21T10:59:27.092Z,31.50
2019-04-21T11:04:21.165Z,31.10
2019-04-21T11:08:50.311Z,31.40
2019-04-21T11:13:14.377Z,31.60
2019-04-21T11:22:53.571Z,30.90
2019-04-21T11:27:06.714Z,30.90
2019-04-21T11:31:20.810Z,30.20
2019-04-21T11:35:41.287Z,31.40
2019-04-21T11:39:55.032Z,31.70
2019-04-21T11:43:57.142Z,32.20
2019-04-21T11:48:24.301Z,32.40
2019-04-21T11:52:29.323Z,32.20
2019-04-21T11:56:34.789Z,32.50
2019-04-21T12:00:42.240Z,32.30
2019-04-21T12:04:47.566Z,32.70
2019-04-21T12:08:55.531Z,32.70
2019-04-21T12:13:01.387Z,33.70
2019-04-21T12:17:07.893Z,34.10
2019-04-21T12:21:16.013Z,33.90
2019-04-21T12:25:22.994Z,33.10
2019-04-21T12:29:29.097Z,33.00
2019-04-21T12:33:46.222Z,33.30
2019-04-21T12:37:51.243Z,33.30
2019-04-21T12:41:56.450Z,33.60
2019-04-21T12:46:02.199Z,33.90
2019-04-21T12:50:08.705Z,34.30
2019-04-21T12:54:15.337Z,33.90
2019-04-21T12:58:21.516Z,34.30
2019-04-21T13:02:27.429Z,32.70
2019-04-21T13:06:33.755Z,32.40
2019-04-21T13:10:40.199Z,32.80
2019-04-21T13:14:45.388Z,34.30
2019-04-21T13:18:51.218Z,34.80
2019-04-21T13:22:57.704Z,36.70
2019-04-21T13:27:03.962Z,35.10
2019-04-21T13:31:09.596Z,34.50
2019-04-21T13:35:16.956Z,34.60
2019-04-21T13:40:14.697Z,33.80
2019-04-21T13:44:17.254Z,32.80
2019-04-21T13:48:22.393Z,33.90
2019-04-21T13:52:28.910Z,33.70
2019-04-21T13:56:34.440Z,33.30
2019-04-21T14:00:40.023Z,34.00
2019-04-21T14:04:45.415Z,34.00
2019-04-21T14:08:51.226Z,34.30
2019-04-21T14:12:58.400Z,34.10
2019-04-21T14:17:05.391Z,35.00
2019-04-21T14:21:11.371Z,35.00
2019-04-21T14:25:17.683Z,34.10
2019-04-21T14:29:24.138Z,33.40
2019-04-21T14:33:29.860Z,32.90
2019-04-21T14:37:34.954Z,33.40
2019-04-21T14:41:40.395Z,33.50
2019-04-21T14:45:56.869Z,35.50
2019-04-21T14:50:24.434Z,35.00
2019-04-21T14:54:54.471Z,35.30
2019-04-21T14:59:01.358Z,34.70
2019-04-21T15:03:07.542Z,33.60
2019-04-21T15:07:12.953Z,33.00
2019-04-21T15:11:18.065Z,33.00
2019-04-21T15:15:23.538Z,33.30
2019-04-21T15:19:28.788Z,32.40
2019-04-21T15:23:34.012Z,31.70
2019-04-21T15:27:39.098Z,29.70
2019-04-21T15:31:44.821Z,26.80
2019-04-21T15:35:51.205Z,25.20
2019-04-21T15:39:56.460Z,24.10
2019-04-21T15:44:04.048Z,23.30
2019-04-21T15:48:08.230Z,22.60
2019-04-21T15:52:13.860Z,22.10
2019-04-21T15:56:44.834Z,21.80
2019-04-21T16:00:58.608Z,21.50
2019-04-21T16:05:04.721Z,21.30
2019-04-21T16:09:14.963Z,21.10
2019-04-21T16:13:19.240Z,20.90
2019-04-21T16:17:25.355Z,20.80
2019-04-21T16:21:31.654Z,20.50
2019-04-21T16:25:36.980Z,20.30
2019-04-21T16:29:42.107Z,20.20
2019-04-21T16:33:49.045Z,20.10
2019-04-21T16:37:57.099Z,20.00
2019-04-21T16:42:02.632Z,19.90
2019-04-21T16:46:10.791Z,19.70
2019-04-21T16:50:16.689Z,19.50
2019-04-21T16:54:28.099Z,19.30
2019-04-21T16:58:45.893Z,19.10
2019-04-21T17:02:52.386Z,18.90
2019-04-21T17:06:58.789Z,18.60
2019-04-21T17:11:12.830Z,18.30
2019-04-21T17:15:28.323Z,18.10
2019-04-21T17:19:27.110Z,17.90
2019-04-21T17:23:25.282Z,17.70
2019-04-21T17:27:31.167Z,17.30
2019-04-21T17:31:37.157Z,17.00
2019-04-21T17:35:42.781Z,16.70
2019-04-21T17:39:49.171Z,16.50
2019-04-21T17:43:54.413Z,16.20
2019-04-21T17:48:04.940Z,15.80
2019-04-21T17:52:43.722Z,15.60
2019-04-21T17:57:07.861Z,15.30
2019-04-21T18:01:12.991Z,15.00
2019-04-21T18:05:26.014Z,14.80
2019-04-21T18:09:31.520Z,14.60
2019-04-21T18:13:18.058Z,14.30
2019-04-21T18:17:22.536Z,14.10
2019-04-21T18:21:34.681Z,13.90
2019-04-21T18:25:47.372Z,13.60
2019-04-21T18:29:46.565Z,13.50
2019-04-21T18:34:12.779Z,13.30
2019-04-21T18:38:26.092Z,13.10
2019-04-21T18:42:48.141Z,13.00
2019-04-21T18:47:06.877Z,13.00
2019-04-21T18:51:03.003Z,12.90
2019-04-21T18:55:16.640Z,12.70
2019-04-21T18:59:09.643Z,12.60
2019-04-21T19:03:20.884Z,12.50
2019-04-21T19:07:37.661Z,12.40
2019-04-21T19:11:49.714Z,12.20
2019-04-21T19:16:11.120Z,12.10
2019-04-21T19:20:07.107Z,11.90
2019-04-21T19:24:17.947Z,11.80
2019-04-21T19:28:13.360Z,11.70
2019-04-21T19:32:21.130Z,11.60
2019-04-21T19:36:08.765Z,11.50
2019-04-21T19:40:31.621Z,11.50
2019-04-21T19:44:38.273Z,11.40
2019-04-21T19:48:58.857Z,11.30
2019-04-21T19:52:47.357Z,11.30
2019-04-21T19:56:42.972Z,11.20
2019-04-21T20:00:50.847Z,11.10
2019-04-21T20:05:03.396Z,10.90
2019-04-21T20:10:03.459Z,10.90
2019-04-21T20:14:41.331Z,10.80
2019-04-21T20:18:08.895Z,10.60
2019-04-21T20:22:03.052Z,10.50
2019-04-21T20:26:10.085Z,10.30
2019-04-21T20:30:36.540Z,10.10
2019-04-21T20:34:43.039Z,10.00
2019-04-21T20:38:39.275Z,9.90
2019-04-21T20:42:47.775Z,9.80
2019-04-21T20:46:59.881Z,9.70
2019-04-21T20:51:05.109Z,9.60
2019-04-21T20:55:07.714Z,9.50
2019-04-21T20:59:14.709Z,9.40
2019-04-21T21:03:30.340Z,9.30
2019-04-21T21:07:50.486Z,9.20
2019-04-21T21:11:36.971Z,9.10
2019-04-21T21:15:52.634Z,9.10
2019-04-21T21:19:53.604Z,8.90
2019-04-21T21:23:58.860Z,8.90
2019-04-21T21:27:57.994Z,8.80
2019-04-21T21:36:19.630Z,8.70
2019-04-21T21:40:26.741Z,8.60
2019-04-21T21:44:22.787Z,8.70
2019-04-21T21:48:40.686Z,8.50
2019-04-21T21:52:43.716Z,8.50
2019-04-21T21:56:38.548Z,8.40
2019-04-21T22:00:49.813Z,8.30
2019-04-21T22:05:01.233Z,8.30
2019-04-21T22:08:58.610Z,8.20
2019-04-21T22:13:08.584Z,8.20
2019-04-21T22:17:24.706Z,8.10
2019-04-21T22:21:38.571Z,8.10
2019-04-21T22:25:29.523Z,8.00
2019-04-21T22:29:38.130Z,8.00
2019-04-21T22:33:44.916Z,7.90
2019-04-21T22:37:55.800Z,7.90
2019-04-21T22:42:03.156Z,7.80
2019-04-21T22:45:57.235Z,7.70
2019-04-21T22:50:02.719Z,7.60
2019-04-21T22:54:08.233Z,7.60
2019-04-21T22:58:15.926Z,7.50
2019-04-21T23:02:24.721Z,7.50
2019-04-21T23:06:30.903Z,7.40
2019-04-21T23:10:33.294Z,7.40
2019-04-21T23:14:47.451Z,7.40
2019-04-21T23:19:09.655Z,7.30
2019-04-21T23:23:16.140Z,7.30
2019-04-21T23:27:14.226Z,7.20
2019-04-21T23:31:30.504Z,7.20
2019-04-21T23:35:25.440Z,7.10
2019-04-21T23:39:27.384Z,7.10
2019-04-21T23:43:31.341Z,7.00
2019-04-21T23:47:48.110Z,7.00
2019-04-21T23:51:50.058Z,7.00
2019-04-21T23:55:49.508Z,6.90
2019-04-21T23:59:57.419Z,6.80
